sensor_id;sensor_type;location;lat;lon;timestamp;temperature;humidity
66586;SHT30;53444;45.822;16.092;2023-08-06T00:00:46;17.56;98.22
66586;SHT30;53444;45.822;16.092;2023-08-06T00:03:12;17.49;98.46
66586;SHT30;53444;45.822;16.092;2023-08-06T00:05:41;17.62;98.31
66586;SHT30;53444;45.822;16.092;2023-08-06T00:08:08;17.68;98.01
66586;SHT30;53444;45.822;16.092;2023-08-06T00:10:34;17.70;97.74
66586;SHT30;53444;45.822;16.092;2023-08-06T00:13:02;17.73;97.51
66586;SHT30;53444;45.822;16.092;2023-08-06T00:15:29;17.75;97.86
66586;SHT30;53444;45.822;16.092;2023-08-06T00:17:55;17.70;98.01
66586;SHT30;53444;45.822;16.092;2023-08-06T00:20:22;17.78;97.85
66586;SHT30;53444;45.822;16.092;2023-08-06T00:22:49;17.79;97.63
66586;SHT30;53444;45.822;16.092;2023-08-06T00:25:15;17.73;97.83
66586;SHT30;53444;45.822;16.092;2023-08-06T00:27:42;17.52;98.43
66586;SHT30;53444;45.822;16.092;2023-08-06T00:30:10;17.45;98.72
66586;SHT30;53444;45.822;16.092;2023-08-06T00:32:37;17.53;98.74
66586;SHT30;53444;45.822;16.092;2023-08-06T00:35:04;17.56;98.33
66586;SHT30;53444;45.822;16.092;2023-08-06T00:37:31;17.61;98.44
66586;SHT30;53444;45.822;16.092;2023-08-06T00:39:58;17.65;98.25
66586;SHT30;53444;45.822;16.092;2023-08-06T00:42:24;17.61;98.19
66586;SHT30;53444;45.822;16.092;2023-08-06T00:44:51;17.65;97.93
66586;SHT30;53444;45.822;16.092;2023-08-06T00:47:19;17.69;97.68
66586;SHT30;53444;45.822;16.092;2023-08-06T00:49:45;17.75;97.85
66586;SHT30;53444;45.822;16.092;2023-08-06T00:52:13;17.70;98.06
66586;SHT30;53444;45.822;16.092;2023-08-06T00:54:39;17.56;98.52
66586;SHT30;53444;45.822;16.092;2023-08-06T00:57:07;17.63;98.52
66586;SHT30;53444;45.822;16.092;2023-08-06T00:59:34;17.61;98.87
66586;SHT30;53444;45.822;16.092;2023-08-06T01:02:01;17.59;98.36
66586;SHT30;53444;45.822;16.092;2023-08-06T01:04:29;17.59;98.44
66586;SHT30;53444;45.822;16.092;2023-08-06T01:07:04;17.61;98.73
66586;SHT30;53444;45.822;16.092;2023-08-06T01:09:41;17.73;97.97
66586;SHT30;53444;45.822;16.092;2023-08-06T01:12:18;17.76;97.83
66586;SHT30;53444;45.822;16.092;2023-08-06T01:14:52;17.80;97.86
66586;SHT30;53444;45.822;16.092;2023-08-06T01:17:20;17.80;97.93
66586;SHT30;53444;45.822;16.092;2023-08-06T01:19:48;17.79;97.93
66586;SHT30;53444;45.822;16.092;2023-08-06T01:22:16;17.79;97.77
66586;SHT30;53444;45.822;16.092;2023-08-06T01:24:45;17.58;98.21
66586;SHT30;53444;45.822;16.092;2023-08-06T01:27:19;17.48;99.04
66586;SHT30;53444;45.822;16.092;2023-08-06T01:29:57;17.38;99.39
66586;SHT30;53444;45.822;16.092;2023-08-06T01:32:26;17.24;99.99
66586;SHT30;53444;45.822;16.092;2023-08-06T01:34:54;17.28;99.99
66586;SHT30;53444;45.822;16.092;2023-08-06T01:37:23;17.21;99.99
66586;SHT30;53444;45.822;16.092;2023-08-06T01:39:50;17.32;99.69
66586;SHT30;53444;45.822;16.092;2023-08-06T01:42:16;17.41;99.30
66586;SHT30;53444;45.822;16.092;2023-08-06T01:44:43;17.25;99.95
66586;SHT30;53444;45.822;16.092;2023-08-06T01:47:09;17.12;99.99
66586;SHT30;53444;45.822;16.092;2023-08-06T01:49:36;17.03;99.99
66586;SHT30;53444;45.822;16.092;2023-08-06T01:52:03;17.18;99.99
66586;SHT30;53444;45.822;16.092;2023-08-06T01:54:31;17.21;99.76
66586;SHT30;53444;45.822;16.092;2023-08-06T01:56:58;17.14;99.99
66586;SHT30;53444;45.822;16.092;2023-08-06T01:59:24;17.14;99.99
66586;SHT30;53444;45.822;16.092;2023-08-06T02:01:51;17.24;99.78
66586;SHT30;53444;45.822;16.092;2023-08-06T02:04:18;17.31;99.58
66586;SHT30;53444;45.822;16.092;2023-08-06T02:06:44;17.28;99.57
66586;SHT30;53444;45.822;16.092;2023-08-06T02:09:11;17.38;98.98
66586;SHT30;53444;45.822;16.092;2023-08-06T02:11:39;17.29;99.36
66586;SHT30;53444;45.822;16.092;2023-08-06T02:14:05;17.21;99.67
66586;SHT30;53444;45.822;16.092;2023-08-06T02:16:32;17.24;99.22
66586;SHT30;53444;45.822;16.092;2023-08-06T02:18:59;17.38;99.26
66586;SHT30;53444;45.822;16.092;2023-08-06T02:21:25;17.39;99.15
66586;SHT30;53444;45.822;16.092;2023-08-06T02:23:52;17.46;98.90
66586;SHT30;53444;45.822;16.092;2023-08-06T02:26:18;17.53;98.66
66586;SHT30;53444;45.822;16.092;2023-08-06T02:28:46;17.55;98.92
66586;SHT30;53444;45.822;16.092;2023-08-06T02:31:13;17.62;98.70
66586;SHT30;53444;45.822;16.092;2023-08-06T02:33:39;17.72;97.17
66586;SHT30;53444;45.822;16.092;2023-08-06T02:36:06;17.68;97.20
66586;SHT30;53444;45.822;16.092;2023-08-06T02:38:33;17.39;98.23
66586;SHT30;53444;45.822;16.092;2023-08-06T02:41:02;17.38;98.83
66586;SHT30;53444;45.822;16.092;2023-08-06T02:43:28;17.35;98.87
66586;SHT30;53444;45.822;16.092;2023-08-06T02:45:58;17.32;98.99
66586;SHT30;53444;45.822;16.092;2023-08-06T02:48:24;17.20;99.26
66586;SHT30;53444;45.822;16.092;2023-08-06T02:50:51;17.06;99.44
66586;SHT30;53444;45.822;16.092;2023-08-06T02:53:18;17.07;99.49
66586;SHT30;53444;45.822;16.092;2023-08-06T02:55:45;17.10;98.91
66586;SHT30;53444;45.822;16.092;2023-08-06T02:58:13;17.06;97.80
66586;SHT30;53444;45.822;16.092;2023-08-06T03:00:39;17.08;97.99
66586;SHT30;53444;45.822;16.092;2023-08-06T03:03:07;17.06;98.18
66586;SHT30;53444;45.822;16.092;2023-08-06T03:05:34;17.15;98.24
66586;SHT30;53444;45.822;16.092;2023-08-06T03:08:01;17.04;98.42
66586;SHT30;53444;45.822;16.092;2023-08-06T03:10:27;17.03;98.13
66586;SHT30;53444;45.822;16.092;2023-08-06T03:12:54;17.01;98.72
66586;SHT30;53444;45.822;16.092;2023-08-06T03:15:20;16.85;98.30
66586;SHT30;53444;45.822;16.092;2023-08-06T03:17:47;16.91;98.55
66586;SHT30;53444;45.822;16.092;2023-08-06T03:20:15;16.92;98.00
66586;SHT30;53444;45.822;16.092;2023-08-06T03:22:42;17.00;97.51
66586;SHT30;53444;45.822;16.092;2023-08-06T03:25:08;17.00;97.48
66586;SHT30;53444;45.822;16.092;2023-08-06T03:27:35;17.03;97.36
66586;SHT30;53444;45.822;16.092;2023-08-06T03:30:01;16.98;97.44
66586;SHT30;53444;45.822;16.092;2023-08-06T03:32:28;16.91;97.19
66586;SHT30;53444;45.822;16.092;2023-08-06T03:34:55;17.03;97.09
66586;SHT30;53444;45.822;16.092;2023-08-06T03:37:23;17.10;96.73
66586;SHT30;53444;45.822;16.092;2023-08-06T03:39:49;17.15;96.34
66586;SHT30;53444;45.822;16.092;2023-08-06T03:42:16;17.10;96.34
66586;SHT30;53444;45.822;16.092;2023-08-06T03:44:42;17.08;96.41
66586;SHT30;53444;45.822;16.092;2023-08-06T03:47:09;17.12;96.32
66586;SHT30;53444;45.822;16.092;2023-08-06T03:49:35;17.11;96.15
66586;SHT30;53444;45.822;16.092;2023-08-06T03:52:02;17.17;96.40
66586;SHT30;53444;45.822;16.092;2023-08-06T03:54:30;17.22;96.09
66586;SHT30;53444;45.822;16.092;2023-08-06T03:56:57;17.17;96.23
66586;SHT30;53444;45.822;16.092;2023-08-06T03:59:24;16.98;96.93
66586;SHT30;53444;45.822;16.092;2023-08-06T04:01:50;16.91;97.49
66586;SHT30;53444;45.822;16.092;2023-08-06T04:04:17;17.03;97.25
66586;SHT30;53444;45.822;16.092;2023-08-06T04:06:43;17.00;97.41
66586;SHT30;53444;45.822;16.092;2023-08-06T04:09:10;16.71;98.18
66586;SHT30;53444;45.822;16.092;2023-08-06T04:11:38;16.73;98.06
66586;SHT30;53444;45.822;16.092;2023-08-06T04:14:05;16.78;97.88
66586;SHT30;53444;45.822;16.092;2023-08-06T04:16:31;16.87;97.27
66586;SHT30;53444;45.822;16.092;2023-08-06T04:18:58;16.91;97.21
66586;SHT30;53444;45.822;16.092;2023-08-06T04:21:24;16.83;97.68
66586;SHT30;53444;45.822;16.092;2023-08-06T04:23:51;16.80;97.83
66586;SHT30;53444;45.822;16.092;2023-08-06T04:26:17;16.97;97.57
66586;SHT30;53444;45.822;16.092;2023-08-06T04:28:45;17.07;97.21
66586;SHT30;53444;45.822;16.092;2023-08-06T04:31:12;17.08;97.17
66586;SHT30;53444;45.822;16.092;2023-08-06T04:33:38;17.22;96.82
66586;SHT30;53444;45.822;16.092;2023-08-06T04:36:06;17.31;96.84
66586;SHT30;53444;45.822;16.092;2023-08-06T04:38:32;17.36;96.73
66586;SHT30;53444;45.822;16.092;2023-08-06T04:40:59;17.36;96.64
66586;SHT30;53444;45.822;16.092;2023-08-06T04:43:26;17.48;96.58
66586;SHT30;53444;45.822;16.092;2023-08-06T04:45:54;17.58;96.89
66586;SHT30;53444;45.822;16.092;2023-08-06T04:48:21;17.58;96.08
66586;SHT30;53444;45.822;16.092;2023-08-06T04:50:49;17.41;96.36
66586;SHT30;53444;45.822;16.092;2023-08-06T04:53:16;17.55;96.51
66586;SHT30;53444;45.822;16.092;2023-08-06T04:55:43;17.63;96.31
66586;SHT30;53444;45.822;16.092;2023-08-06T04:58:10;17.70;96.42
66586;SHT30;53444;45.822;16.092;2023-08-06T05:00:37;17.55;96.98
66586;SHT30;53444;45.822;16.092;2023-08-06T05:03:05;17.61;97.12
66586;SHT30;53444;45.822;16.092;2023-08-06T05:05:32;17.55;96.07
66586;SHT30;53444;45.822;16.092;2023-08-06T05:07:59;17.43;97.35
66586;SHT30;53444;45.822;16.092;2023-08-06T05:10:25;17.58;96.92
66586;SHT30;53444;45.822;16.092;2023-08-06T05:12:52;17.46;96.55
66586;SHT30;53444;45.822;16.092;2023-08-06T05:15:19;17.41;96.93
66586;SHT30;53444;45.822;16.092;2023-08-06T05:17:46;17.45;95.86
66586;SHT30;53444;45.822;16.092;2023-08-06T05:20:14;17.52;95.30
66586;SHT30;53444;45.822;16.092;2023-08-06T05:22:41;17.62;96.24
66586;SHT30;53444;45.822;16.092;2023-08-06T05:25:08;17.65;96.54
66586;SHT30;53444;45.822;16.092;2023-08-06T05:27:34;17.65;97.16
66586;SHT30;53444;45.822;16.092;2023-08-06T05:30:01;17.68;97.30
66586;SHT30;53444;45.822;16.092;2023-08-06T05:32:28;17.63;96.75
66586;SHT30;53444;45.822;16.092;2023-08-06T05:34:54;17.68;94.25
66586;SHT30;53444;45.822;16.092;2023-08-06T05:37:22;17.68;94.24
66586;SHT30;53444;45.822;16.092;2023-08-06T05:39:49;17.73;93.93
66586;SHT30;53444;45.822;16.092;2023-08-06T05:42:16;17.75;93.88
66586;SHT30;53444;45.822;16.092;2023-08-06T05:44:42;17.70;93.63
66586;SHT30;53444;45.822;16.092;2023-08-06T05:47:09;17.69;93.60
66586;SHT30;53444;45.822;16.092;2023-08-06T05:49:36;17.80;93.57
66586;SHT30;53444;45.822;16.092;2023-08-06T05:52:04;17.82;93.81
66586;SHT30;53444;45.822;16.092;2023-08-06T05:54:35;17.69;93.94
66586;SHT30;53444;45.822;16.092;2023-08-06T05:57:01;17.51;94.51
66586;SHT30;53444;45.822;16.092;2023-08-06T05:59:28;17.48;94.85
66586;SHT30;53444;45.822;16.092;2023-08-06T06:01:55;17.48;95.15
66586;SHT30;53444;45.822;16.092;2023-08-06T06:04:22;17.27;95.68
66586;SHT30;53444;45.822;16.092;2023-08-06T06:06:49;17.24;96.22
66586;SHT30;53444;45.822;16.092;2023-08-06T06:09:16;17.38;96.23
66586;SHT30;53444;45.822;16.092;2023-08-06T06:11:44;17.48;96.42
66586;SHT30;53444;45.822;16.092;2023-08-06T06:14:12;17.53;96.44
66586;SHT30;53444;45.822;16.092;2023-08-06T06:16:39;17.58;96.29
66586;SHT30;53444;45.822;16.092;2023-08-06T06:19:06;17.55;96.51
66586;SHT30;53444;45.822;16.092;2023-08-06T06:21:36;17.56;95.69
66586;SHT30;53444;45.822;16.092;2023-08-06T06:24:04;17.36;96.75
66586;SHT30;53444;45.822;16.092;2023-08-06T06:26:30;17.15;97.37
66586;SHT30;53444;45.822;16.092;2023-08-06T06:28:59;17.21;97.90
66586;SHT30;53444;45.822;16.092;2023-08-06T06:31:26;17.07;98.20
66586;SHT30;53444;45.822;16.092;2023-08-06T06:33:52;17.15;97.54
66586;SHT30;53444;45.822;16.092;2023-08-06T06:36:20;17.25;97.53
66586;SHT30;53444;45.822;16.092;2023-08-06T06:38:46;17.25;97.58
66586;SHT30;53444;45.822;16.092;2023-08-06T06:41:14;17.36;97.40
66586;SHT30;53444;45.822;16.092;2023-08-06T06:43:41;17.43;97.04
66586;SHT30;53444;45.822;16.092;2023-08-06T06:46:10;17.22;97.13
66586;SHT30;53444;45.822;16.092;2023-08-06T06:48:36;17.17;97.62
66586;SHT30;53444;45.822;16.092;2023-08-06T06:51:03;17.24;97.30
66586;SHT30;53444;45.822;16.092;2023-08-06T06:53:30;17.21;97.53
66586;SHT30;53444;45.822;16.092;2023-08-06T06:56:01;17.10;98.01
66586;SHT30;53444;45.822;16.092;2023-08-06T06:58:28;17.24;97.64
66586;SHT30;53444;45.822;16.092;2023-08-06T07:00:55;17.01;98.84
66586;SHT30;53444;45.822;16.092;2023-08-06T07:03:23;17.15;98.05
66586;SHT30;53444;45.822;16.092;2023-08-06T07:05:50;17.01;98.83
66586;SHT30;53444;45.822;16.092;2023-08-06T07:08:17;17.03;98.88
66586;SHT30;53444;45.822;16.092;2023-08-06T07:10:43;16.91;98.66
66586;SHT30;53444;45.822;16.092;2023-08-06T07:13:10;17.04;98.28
66586;SHT30;53444;45.822;16.092;2023-08-06T07:15:37;17.17;97.82
66586;SHT30;53444;45.822;16.092;2023-08-06T07:18:03;17.10;97.78
66586;SHT30;53444;45.822;16.092;2023-08-06T07:20:31;17.17;97.53
66586;SHT30;53444;45.822;16.092;2023-08-06T07:23:00;17.17;97.46
66586;SHT30;53444;45.822;16.092;2023-08-06T07:25:26;17.14;97.52
66586;SHT30;53444;45.822;16.092;2023-08-06T07:27:53;17.20;98.06
66586;SHT30;53444;45.822;16.092;2023-08-06T07:30:19;17.14;97.55
66586;SHT30;53444;45.822;16.092;2023-08-06T07:32:46;17.11;97.85
66586;SHT30;53444;45.822;16.092;2023-08-06T07:35:13;17.20;97.87
66586;SHT30;53444;45.822;16.092;2023-08-06T07:37:41;17.36;97.58
66586;SHT30;53444;45.822;16.092;2023-08-06T07:40:09;17.22;97.61
66586;SHT30;53444;45.822;16.092;2023-08-06T07:42:35;17.21;98.43
66586;SHT30;53444;45.822;16.092;2023-08-06T07:45:02;17.25;97.37
66586;SHT30;53444;45.822;16.092;2023-08-06T07:47:29;17.35;96.92
66586;SHT30;53444;45.822;16.092;2023-08-06T07:49:55;17.41;95.72
66586;SHT30;53444;45.822;16.092;2023-08-06T07:52:22;17.45;96.35
66586;SHT30;53444;45.822;16.092;2023-08-06T07:54:50;17.39;96.31
66586;SHT30;53444;45.822;16.092;2023-08-06T07:57:17;17.21;96.45
66586;SHT30;53444;45.822;16.092;2023-08-06T07:59:43;17.28;96.40
66586;SHT30;53444;45.822;16.092;2023-08-06T08:02:10;17.36;96.88
66586;SHT30;53444;45.822;16.092;2023-08-06T08:04:37;17.36;96.90
66586;SHT30;53444;45.822;16.092;2023-08-06T08:07:06;17.38;97.06
66586;SHT30;53444;45.822;16.092;2023-08-06T08:09:34;17.51;96.94
66586;SHT30;53444;45.822;16.092;2023-08-06T08:12:02;17.56;95.45
66586;SHT30;53444;45.822;16.092;2023-08-06T08:14:29;17.55;96.34
66586;SHT30;53444;45.822;16.092;2023-08-06T08:17:00;17.51;96.16
66586;SHT30;53444;45.822;16.092;2023-08-06T08:19:28;17.56;95.79
66586;SHT30;53444;45.822;16.092;2023-08-06T08:21:56;17.63;95.68
66586;SHT30;53444;45.822;16.092;2023-08-06T08:24:22;17.63;95.45
66586;SHT30;53444;45.822;16.092;2023-08-06T08:26:50;17.53;95.79
66586;SHT30;53444;45.822;16.092;2023-08-06T08:29:19;17.49;96.10
66586;SHT30;53444;45.822;16.092;2023-08-06T08:31:47;17.63;96.28
66586;SHT30;53444;45.822;16.092;2023-08-06T08:34:15;17.62;96.31
66586;SHT30;53444;45.822;16.092;2023-08-06T08:36:42;17.56;96.79
66586;SHT30;53444;45.822;16.092;2023-08-06T08:39:08;17.45;96.72
66586;SHT30;53444;45.822;16.092;2023-08-06T08:41:36;17.48;96.76
66586;SHT30;53444;45.822;16.092;2023-08-06T08:44:07;17.51;96.53
66586;SHT30;53444;45.822;16.092;2023-08-06T08:46:36;17.53;97.06
66586;SHT30;53444;45.822;16.092;2023-08-06T08:49:04;17.59;97.75
66586;SHT30;53444;45.822;16.092;2023-08-06T08:51:31;17.62;96.78
66586;SHT30;53444;45.822;16.092;2023-08-06T08:53:59;17.75;96.71
66586;SHT30;53444;45.822;16.092;2023-08-06T08:56:25;17.76;96.68
66586;SHT30;53444;45.822;16.092;2023-08-06T08:58:52;17.85;95.81
66586;SHT30;53444;45.822;16.092;2023-08-06T09:01:21;17.79;95.93
66586;SHT30;53444;45.822;16.092;2023-08-06T09:03:53;17.78;96.62
66586;SHT30;53444;45.822;16.092;2023-08-06T09:06:21;17.90;96.87
66586;SHT30;53444;45.822;16.092;2023-08-06T09:08:56;18.00;96.61
66586;SHT30;53444;45.822;16.092;2023-08-06T09:11:27;18.16;96.02
66586;SHT30;53444;45.822;16.092;2023-08-06T09:13:54;18.21;94.00
66586;SHT30;53444;45.822;16.092;2023-08-06T09:16:22;18.36;94.84
66586;SHT30;53444;45.822;16.092;2023-08-06T09:18:51;18.52;94.18
66586;SHT30;53444;45.822;16.092;2023-08-06T09:21:17;18.41;94.51
66586;SHT30;53444;45.822;16.092;2023-08-06T09:23:44;18.51;94.51
66586;SHT30;53444;45.822;16.092;2023-08-06T09:26:11;18.76;93.96
66586;SHT30;53444;45.822;16.092;2023-08-06T09:28:39;18.50;94.56
66586;SHT30;53444;45.822;16.092;2023-08-06T09:31:08;18.54;94.46
66586;SHT30;53444;45.822;16.092;2023-08-06T09:33:36;18.45;96.12
66586;SHT30;53444;45.822;16.092;2023-08-06T09:36:09;18.47;95.78
66586;SHT30;53444;45.822;16.092;2023-08-06T09:38:38;18.30;95.98
66586;SHT30;53444;45.822;16.092;2023-08-06T09:41:05;18.21;94.94
66586;SHT30;53444;45.822;16.092;2023-08-06T09:43:39;18.10;96.48
66586;SHT30;53444;45.822;16.092;2023-08-06T09:46:11;18.04;95.60
66586;SHT30;53444;45.822;16.092;2023-08-06T09:48:38;18.06;96.07
66586;SHT30;53444;45.822;16.092;2023-08-06T09:51:08;18.33;95.96
66586;SHT30;53444;45.822;16.092;2023-08-06T09:53:37;18.37;97.12
66586;SHT30;53444;45.822;16.092;2023-08-06T09:56:04;18.45;96.51
66586;SHT30;53444;45.822;16.092;2023-08-06T09:58:31;18.29;95.91
66586;SHT30;53444;45.822;16.092;2023-08-06T10:00:58;18.30;96.30
66586;SHT30;53444;45.822;16.092;2023-08-06T10:03:25;18.36;95.52
66586;SHT30;53444;45.822;16.092;2023-08-06T10:05:55;18.36;95.46
66586;SHT30;53444;45.822;16.092;2023-08-06T10:08:23;18.47;95.61
66586;SHT30;53444;45.822;16.092;2023-08-06T10:10:50;18.41;96.11
66586;SHT30;53444;45.822;16.092;2023-08-06T10:13:18;18.33;95.42
66586;SHT30;53444;45.822;16.092;2023-08-06T10:15:46;18.33;95.43
66586;SHT30;53444;45.822;16.092;2023-08-06T10:18:13;18.55;94.32
66586;SHT30;53444;45.822;16.092;2023-08-06T10:20:43;18.78;94.56
66586;SHT30;53444;45.822;16.092;2023-08-06T10:23:09;18.71;93.47
66586;SHT30;53444;45.822;16.092;2023-08-06T10:25:41;18.88;93.46
66586;SHT30;53444;45.822;16.092;2023-08-06T10:28:08;18.95;93.77
66586;SHT30;53444;45.822;16.092;2023-08-06T10:30:42;19.06;93.48
66586;SHT30;53444;45.822;16.092;2023-08-06T10:33:09;19.26;93.41
66586;SHT30;53444;45.822;16.092;2023-08-06T10:35:37;18.98;93.11
66586;SHT30;53444;45.822;16.092;2023-08-06T10:38:04;18.95;93.03
66586;SHT30;53444;45.822;16.092;2023-08-06T10:40:31;18.96;93.52
66586;SHT30;53444;45.822;16.092;2023-08-06T10:43:00;19.02;92.62
66586;SHT30;53444;45.822;16.092;2023-08-06T10:45:27;18.82;92.27
66586;SHT30;53444;45.822;16.092;2023-08-06T10:47:56;19.11;92.60
66586;SHT30;53444;45.822;16.092;2023-08-06T10:50:23;19.11;92.11
66586;SHT30;53444;45.822;16.092;2023-08-06T10:52:50;19.26;92.81
66586;SHT30;53444;45.822;16.092;2023-08-06T10:55:28;19.02;92.73
66586;SHT30;53444;45.822;16.092;2023-08-06T10:57:55;19.01;91.37
66586;SHT30;53444;45.822;16.092;2023-08-06T11:00:24;18.91;92.14
66586;SHT30;53444;45.822;16.092;2023-08-06T11:02:51;18.99;93.01
66586;SHT30;53444;45.822;16.092;2023-08-06T11:05:18;19.12;91.94
66586;SHT30;53444;45.822;16.092;2023-08-06T11:07:45;19.08;92.71
66586;SHT30;53444;45.822;16.092;2023-08-06T11:10:13;19.11;91.74
66586;SHT30;53444;45.822;16.092;2023-08-06T11:12:40;19.23;91.49
66586;SHT30;53444;45.822;16.092;2023-08-06T11:15:07;19.08;92.16
66586;SHT30;53444;45.822;16.092;2023-08-06T11:17:36;18.94;92.60
66586;SHT30;53444;45.822;16.092;2023-08-06T11:20:04;18.85;93.44
66586;SHT30;53444;45.822;16.092;2023-08-06T11:22:31;18.92;93.65
66586;SHT30;53444;45.822;16.092;2023-08-06T11:24:58;18.85;93.60
66586;SHT30;53444;45.822;16.092;2023-08-06T11:27:26;18.71;93.49
66586;SHT30;53444;45.822;16.092;2023-08-06T11:29:54;18.68;92.94
66586;SHT30;53444;45.822;16.092;2023-08-06T11:32:21;18.62;93.93
66586;SHT30;53444;45.822;16.092;2023-08-06T11:34:49;18.67;95.37
66586;SHT30;53444;45.822;16.092;2023-08-06T11:37:15;18.69;95.08
66586;SHT30;53444;45.822;16.092;2023-08-06T11:39:46;18.71;94.18
66586;SHT30;53444;45.822;16.092;2023-08-06T11:42:13;18.68;94.12
66586;SHT30;53444;45.822;16.092;2023-08-06T11:44:41;18.62;94.21
66586;SHT30;53444;45.822;16.092;2023-08-06T11:47:12;18.62;94.54
66586;SHT30;53444;45.822;16.092;2023-08-06T11:49:40;18.68;94.21
66586;SHT30;53444;45.822;16.092;2023-08-06T11:52:21;18.78;95.08
66586;SHT30;53444;45.822;16.092;2023-08-06T11:55:00;18.79;94.32
66586;SHT30;53444;45.822;16.092;2023-08-06T11:57:29;18.60;94.13
66586;SHT30;53444;45.822;16.092;2023-08-06T11:59:58;18.71;94.43
66586;SHT30;53444;45.822;16.092;2023-08-06T12:02:31;18.82;94.58
66586;SHT30;53444;45.822;16.092;2023-08-06T12:05:00;19.09;94.33
66586;SHT30;53444;45.822;16.092;2023-08-06T12:07:30;19.30;93.93
66586;SHT30;53444;45.822;16.092;2023-08-06T12:09:56;19.53;94.06
66586;SHT30;53444;45.822;16.092;2023-08-06T12:12:23;19.50;93.34
66586;SHT30;53444;45.822;16.092;2023-08-06T12:14:51;19.63;93.59
66586;SHT30;53444;45.822;16.092;2023-08-06T12:17:17;19.88;93.38
66586;SHT30;53444;45.822;16.092;2023-08-06T12:19:45;20.08;92.48
66586;SHT30;53444;45.822;16.092;2023-08-06T12:22:12;20.28;92.55
66586;SHT30;53444;45.822;16.092;2023-08-06T12:24:41;20.51;92.82
66586;SHT30;53444;45.822;16.092;2023-08-06T12:27:08;20.51;90.42
66586;SHT30;53444;45.822;16.092;2023-08-06T12:29:34;20.46;89.41
66586;SHT30;53444;45.822;16.092;2023-08-06T12:32:01;20.69;88.42
66586;SHT30;53444;45.822;16.092;2023-08-06T12:34:28;20.25;89.80
66586;SHT30;53444;45.822;16.092;2023-08-06T12:36:55;20.71;88.98
66586;SHT30;53444;45.822;16.092;2023-08-06T12:39:21;20.65;87.30
66586;SHT30;53444;45.822;16.092;2023-08-06T12:41:50;19.98;88.06
66586;SHT30;53444;45.822;16.092;2023-08-06T12:44:16;20.13;87.46
66586;SHT30;53444;45.822;16.092;2023-08-06T12:46:43;20.18;88.19
66586;SHT30;53444;45.822;16.092;2023-08-06T12:49:09;20.17;87.47
66586;SHT30;53444;45.822;16.092;2023-08-06T12:51:36;20.97;86.06
66586;SHT30;53444;45.822;16.092;2023-08-06T12:54:03;20.99;85.87
66586;SHT30;53444;45.822;16.092;2023-08-06T12:56:32;21.43;83.16
66586;SHT30;53444;45.822;16.092;2023-08-06T12:59:00;21.40;84.42
66586;SHT30;53444;45.822;16.092;2023-08-06T13:01:27;22.26;82.18
66586;SHT30;53444;45.822;16.092;2023-08-06T13:03:53;21.28;82.13
66586;SHT30;53444;45.822;16.092;2023-08-06T13:06:20;21.13;80.53
66586;SHT30;53444;45.822;16.092;2023-08-06T13:08:46;22.08;78.77
66586;SHT30;53444;45.822;16.092;2023-08-06T13:11:13;21.48;79.91
66586;SHT30;53444;45.822;16.092;2023-08-06T13:13:40;22.06;78.27
66586;SHT30;53444;45.822;16.092;2023-08-06T13:16:10;21.82;79.20
66586;SHT30;53444;45.822;16.092;2023-08-06T13:18:37;23.06;76.15
66586;SHT30;53444;45.822;16.092;2023-08-06T13:21:04;22.90;78.37
66586;SHT30;53444;45.822;16.092;2023-08-06T13:23:30;22.49;76.32
66586;SHT30;53444;45.822;16.092;2023-08-06T13:25:57;22.70;77.45
66586;SHT30;53444;45.822;16.092;2023-08-06T13:28:25;22.77;77.78
66586;SHT30;53444;45.822;16.092;2023-08-06T13:30:51;22.53;77.05
66586;SHT30;53444;45.822;16.092;2023-08-06T13:33:20;22.09;77.36
66586;SHT30;53444;45.822;16.092;2023-08-06T13:35:46;22.12;76.58
66586;SHT30;53444;45.822;16.092;2023-08-06T13:38:13;22.06;77.73
66586;SHT30;53444;45.822;16.092;2023-08-06T13:40:40;22.40;75.66
66586;SHT30;53444;45.822;16.092;2023-08-06T13:43:06;23.18;73.83
66586;SHT30;53444;45.822;16.092;2023-08-06T13:45:33;23.12;75.63
66586;SHT30;53444;45.822;16.092;2023-08-06T13:48:00;22.81;75.16
66586;SHT30;53444;45.822;16.092;2023-08-06T13:50:28;22.73;76.32
66586;SHT30;53444;45.822;16.092;2023-08-06T13:52:55;22.73;73.77
66586;SHT30;53444;45.822;16.092;2023-08-06T13:55:22;21.89;77.10
66586;SHT30;53444;45.822;16.092;2023-08-06T13:57:49;21.65;80.06
66586;SHT30;53444;45.822;16.092;2023-08-06T14:00:16;22.69;76.91
66586;SHT30;53444;45.822;16.092;2023-08-06T14:02:43;23.50;73.61
66586;SHT30;53444;45.822;16.092;2023-08-06T14:05:10;23.31;75.32
66586;SHT30;53444;45.822;16.092;2023-08-06T14:07:38;22.50;76.33
66586;SHT30;53444;45.822;16.092;2023-08-06T14:10:06;21.78;78.80
66586;SHT30;53444;45.822;16.092;2023-08-06T14:12:34;22.02;78.30
66586;SHT30;53444;45.822;16.092;2023-08-06T14:15:01;21.54;79.57
66586;SHT30;53444;45.822;16.092;2023-08-06T14:17:28;21.09;82.04
66586;SHT30;53444;45.822;16.092;2023-08-06T14:19:55;21.34;80.74
66586;SHT30;53444;45.822;16.092;2023-08-06T14:22:21;21.47;80.53
66586;SHT30;53444;45.822;16.092;2023-08-06T14:24:50;21.64;80.19
66586;SHT30;53444;45.822;16.092;2023-08-06T14:27:16;21.77;79.48
66586;SHT30;53444;45.822;16.092;2023-08-06T14:29:43;21.23;79.97
66586;SHT30;53444;45.822;16.092;2023-08-06T14:32:09;20.97;77.39
66586;SHT30;53444;45.822;16.092;2023-08-06T14:34:36;21.03;78.09
66586;SHT30;53444;45.822;16.092;2023-08-06T14:37:03;20.86;77.50
66586;SHT30;53444;45.822;16.092;2023-08-06T14:39:30;20.75;77.27
66586;SHT30;53444;45.822;16.092;2023-08-06T14:41:58;20.64;79.11
66586;SHT30;53444;45.822;16.092;2023-08-06T14:44:24;20.85;79.99
66586;SHT30;53444;45.822;16.092;2023-08-06T14:46:51;20.75;80.51
66586;SHT30;53444;45.822;16.092;2023-08-06T14:49:17;20.68;78.82
66586;SHT30;53444;45.822;16.092;2023-08-06T14:51:44;20.96;78.62
66586;SHT30;53444;45.822;16.092;2023-08-06T14:54:15;21.07;76.50
66586;SHT30;53444;45.822;16.092;2023-08-06T14:56:41;21.48;76.02
66586;SHT30;53444;45.822;16.092;2023-08-06T14:59:09;21.74;76.47
66586;SHT30;53444;45.822;16.092;2023-08-06T15:01:36;21.65;75.83
66586;SHT30;53444;45.822;16.092;2023-08-06T15:04:03;21.94;76.17
66586;SHT30;53444;45.822;16.092;2023-08-06T15:06:29;21.99;74.89
66586;SHT30;53444;45.822;16.092;2023-08-06T15:08:56;21.64;76.72
66586;SHT30;53444;45.822;16.092;2023-08-06T15:11:26;21.47;77.16
66586;SHT30;53444;45.822;16.092;2023-08-06T15:13:53;22.05;76.77
66586;SHT30;53444;45.822;16.092;2023-08-06T15:16:21;22.01;75.60